createdAt,value
2018-10-17T00:01:31.210Z,53.20
2018-10-17T00:03:59.763Z,53.20
2018-10-17T00:06:28.226Z,53.10
2018-10-17T00:08:56.626Z,53.10
2018-10-17T00:11:25.094Z,53.10
2018-10-17T00:13:53.528Z,53.10
2018-10-17T00:16:21.944Z,53.10
2018-10-17T00:18:50.370Z,53.10
2018-10-17T00:21:18.814Z,53.70
2018-10-17T00:23:47.257Z,53.00
2018-10-17T00:26:15.659Z,53.40
2018-10-17T00:28:44.187Z,53.00
2018-10-17T00:31:12.671Z,53.10
2018-10-17T00:33:41.084Z,53.00
2018-10-17T00:36:09.552Z,53.00
2018-10-17T00:38:37.971Z,53.00
2018-10-17T00:41:06.399Z,53.00
2018-10-17T00:43:34.887Z,53.00
2018-10-17T00:46:03.287Z,53.00
2018-10-17T00:48:31.721Z,53.00
2018-10-17T00:51:00.183Z,53.00
2018-10-17T00:53:28.666Z,53.00
2018-10-17T00:55:57.083Z,53.00
2018-10-17T00:58:25.507Z,53.00
2018-10-17T01:00:54.297Z,53.70
2018-10-17T01:03:22.756Z,53.00
2018-10-17T01:05:54.918Z,53.00
2018-10-17T01:09:52.798Z,53.00
2018-10-17T01:12:21.323Z,53.00
2018-10-17T01:14:49.740Z,52.40
2018-10-17T01:17:18.497Z,53.00
2018-10-17T01:19:46.927Z,53.00
2018-10-17T01:22:15.331Z,53.00
2018-10-17T01:24:43.742Z,53.00
2018-10-17T01:27:12.202Z,53.00
2018-10-17T01:29:40.631Z,53.00
2018-10-17T01:32:09.050Z,53.00
2018-10-17T01:34:37.466Z,53.00
2018-10-17T01:37:05.981Z,53.00
2018-10-17T01:39:34.402Z,53.00
2018-10-17T01:42:02.843Z,52.90
2018-10-17T01:44:31.232Z,53.00
2018-10-17T01:46:59.717Z,52.90
2018-10-17T01:49:28.204Z,52.90
2018-10-17T01:51:56.582Z,53.00
2018-10-17T01:54:26.053Z,52.90
2018-10-17T01:56:54.512Z,52.90
2018-10-17T01:59:22.910Z,52.90
2018-10-17T02:01:51.364Z,53.00
2018-10-17T02:04:19.810Z,52.90
2018-10-17T02:06:48.354Z,52.90
2018-10-17T02:09:16.766Z,52.90
2018-10-17T02:11:45.196Z,53.40
2018-10-17T02:14:13.663Z,52.90
2018-10-17T02:16:42.080Z,52.90
2018-10-17T02:19:10.576Z,52.90
2018-10-17T02:21:38.940Z,52.90
2018-10-17T02:24:07.659Z,52.90
2018-10-17T02:26:36.075Z,52.90
2018-10-17T02:29:04.776Z,52.90
2018-10-17T02:31:33.251Z,53.00
2018-10-17T02:34:01.691Z,53.00
2018-10-17T02:36:30.199Z,53.00
2018-10-17T02:38:58.699Z,53.00
2018-10-17T02:41:27.231Z,53.00
2018-10-17T02:43:55.643Z,53.00
2018-10-17T02:46:24.067Z,53.00
2018-10-17T02:48:52.564Z,53.00
2018-10-17T02:51:20.989Z,53.00
2018-10-17T02:53:49.448Z,53.00
2018-10-17T02:56:17.903Z,53.00
2018-10-17T02:58:46.450Z,53.00
2018-10-17T03:01:18.786Z,53.10
2018-10-17T03:03:47.238Z,53.10
2018-10-17T03:06:15.711Z,53.10
2018-10-17T03:08:46.417Z,53.10
2018-10-17T03:11:14.932Z,53.10
2018-10-17T03:13:43.320Z,53.10
2018-10-17T03:16:11.747Z,53.10
2018-10-17T03:18:40.253Z,53.10
2018-10-17T03:21:08.709Z,53.10
2018-10-17T03:23:37.147Z,53.10
2018-10-17T03:26:05.972Z,53.10
2018-10-17T03:28:34.445Z,53.10
2018-10-17T03:31:03.056Z,53.10
2018-10-17T03:33:31.513Z,53.10
2018-10-17T03:36:00.015Z,53.10
2018-10-17T03:38:28.443Z,53.10
2018-10-17T03:40:56.939Z,53.10
2018-10-17T03:43:25.316Z,53.10
2018-10-17T03:45:53.797Z,53.10
2018-10-17T03:48:22.253Z,53.10
2018-10-17T03:50:50.684Z,53.10
2018-10-17T03:53:19.194Z,53.10
2018-10-17T03:55:47.585Z,53.10
2018-10-17T03:58:16.110Z,53.10
2018-10-17T04:00:44.544Z,53.10
2018-10-17T04:03:13.152Z,53.10
2018-10-17T04:05:41.481Z,53.10
2018-10-17T04:08:09.923Z,53.10
2018-10-17T04:10:38.748Z,53.10
2018-10-17T04:13:07.288Z,53.10
2018-10-17T04:15:35.790Z,53.10
2018-10-17T04:18:04.241Z,53.10
2018-10-17T04:20:32.688Z,53.10
2018-10-17T04:23:01.146Z,53.10
2018-10-17T04:25:29.632Z,53.10
2018-10-17T04:27:58.120Z,53.10
2018-10-17T04:30:26.544Z,53.10
2018-10-17T04:32:55.028Z,53.10
2018-10-17T04:35:23.464Z,53.10
2018-10-17T04:37:51.977Z,53.10
2018-10-17T04:40:20.484Z,53.10
2018-10-17T04:42:48.901Z,53.10
2018-10-17T04:45:17.393Z,53.00
2018-10-17T04:47:45.862Z,53.00
2018-10-17T04:50:14.308Z,53.10
2018-10-17T04:52:42.701Z,53.00
2018-10-17T04:55:11.616Z,53.00
2018-10-17T04:57:40.179Z,53.00
2018-10-17T05:00:11.173Z,53.00
2018-10-17T05:02:40.675Z,53.00
2018-10-17T05:05:09.281Z,53.00
2018-10-17T05:07:37.625Z,53.00
2018-10-17T05:10:06.083Z,53.10
2018-10-17T05:12:38.875Z,53.00
2018-10-17T05:15:07.380Z,53.00
2018-10-17T05:17:35.829Z,53.20
2018-10-17T05:20:04.359Z,53.30
2018-10-17T05:22:32.950Z,53.40
2018-10-17T05:25:05.784Z,53.60
2018-10-17T05:27:34.212Z,53.70
2018-10-17T05:30:02.652Z,53.60
2018-10-17T05:32:31.075Z,53.90
2018-10-17T05:34:59.594Z,54.50
2018-10-17T05:37:28.123Z,54.10
2018-10-17T05:39:56.752Z,54.30
2018-10-17T05:42:25.187Z,54.30
2018-10-17T05:44:53.710Z,54.30
2018-10-17T05:47:22.423Z,54.30
2018-10-17T05:49:50.912Z,54.30
2018-10-17T05:52:19.343Z,54.30
2018-10-17T05:54:47.766Z,54.40
2018-10-17T05:57:16.251Z,54.50
2018-10-17T05:59:45.028Z,54.60
2018-10-17T06:02:23.560Z,54.60
2018-10-17T06:04:51.942Z,54.70
2018-10-17T06:07:20.360Z,54.40
2018-10-17T06:09:48.831Z,54.50
2018-10-17T06:12:17.481Z,54.50
2018-10-17T06:14:49.307Z,54.40
2018-10-17T06:17:17.923Z,54.20
2018-10-17T06:19:46.411Z,54.30
2018-10-17T06:22:14.864Z,54.30
2018-10-17T06:24:43.302Z,54.40
2018-10-17T06:27:11.957Z,54.40
2018-10-17T06:29:40.681Z,54.20
2018-10-17T06:32:09.224Z,53.90
2018-10-17T06:34:37.720Z,53.60
2018-10-17T06:37:06.355Z,53.50
2018-10-17T06:39:34.764Z,53.40
2018-10-17T06:42:03.189Z,53.40
2018-10-17T06:44:31.580Z,53.40
2018-10-17T06:46:59.962Z,53.30
2018-10-17T06:49:28.245Z,53.30
2018-10-17T06:51:56.593Z,53.30
2018-10-17T06:54:25.404Z,53.20
2018-10-17T06:56:53.784Z,53.30
2018-10-17T06:59:22.121Z,53.30
2018-10-17T07:01:50.589Z,53.40
2018-10-17T07:04:18.843Z,53.40
2018-10-17T07:06:47.202Z,53.40
2018-10-17T07:09:15.569Z,53.30
2018-10-17T07:11:43.956Z,53.30
2018-10-17T07:14:12.432Z,53.20
2018-10-17T07:16:40.948Z,53.20
2018-10-17T07:19:09.459Z,53.50
2018-10-17T07:21:37.865Z,53.20
2018-10-17T07:24:06.305Z,53.20
2018-10-17T07:26:34.764Z,53.30
2018-10-17T07:29:03.240Z,53.50
2018-10-17T07:31:31.727Z,53.30
2018-10-17T07:34:00.101Z,53.40
2018-10-17T07:36:28.485Z,53.50
2018-10-17T07:38:56.906Z,53.60
2018-10-17T07:41:25.289Z,54.10
2018-10-17T07:43:53.714Z,54.10
2018-10-17T07:46:22.092Z,54.00
2018-10-17T07:48:50.490Z,54.10
2018-10-17T07:51:18.902Z,54.40
2018-10-17T07:53:47.348Z,54.20
2018-10-17T07:56:15.958Z,54.10
2018-10-17T07:58:44.474Z,54.20
2018-10-17T08:01:12.845Z,54.30
2018-10-17T08:03:41.226Z,54.40
2018-10-17T08:06:09.758Z,54.40
2018-10-17T08:08:38.109Z,54.80
2018-10-17T08:11:06.467Z,54.80
2018-10-17T08:13:34.862Z,55.40
2018-10-17T08:16:03.228Z,55.20
2018-10-17T08:18:31.839Z,55.10
2018-10-17T08:21:00.228Z,55.10
2018-10-17T08:23:28.582Z,55.50
2018-10-17T08:25:57.116Z,55.50
2018-10-17T08:28:25.552Z,55.70
2018-10-17T08:30:53.892Z,56.00
2018-10-17T08:33:22.355Z,56.30
2018-10-17T08:35:50.848Z,56.60
2018-10-17T08:38:19.744Z,56.50
2018-10-17T08:40:48.186Z,56.70
2018-10-17T08:43:16.520Z,57.50
2018-10-17T08:45:44.881Z,57.60
2018-10-17T08:48:13.216Z,57.30
2018-10-17T08:50:41.657Z,57.40
2018-10-17T08:53:09.952Z,57.70
2018-10-17T08:55:38.281Z,57.30
2018-10-17T08:58:06.670Z,57.20
2018-10-17T09:00:35.019Z,57.20
2018-10-17T09:03:03.416Z,57.00
2018-10-17T09:05:31.760Z,56.30
2018-10-17T09:08:00.205Z,57.30
2018-10-17T09:10:31.563Z,57.30
2018-10-17T09:12:59.919Z,57.40
2018-10-17T09:15:28.289Z,57.60
2018-10-17T09:17:56.718Z,57.70
2018-10-17T09:20:25.337Z,58.30
2018-10-17T09:22:53.527Z,59.10
2018-10-17T09:25:21.871Z,59.20
2018-10-17T09:27:50.226Z,59.00
2018-10-17T09:30:18.605Z,58.90
2018-10-17T09:32:46.916Z,58.60
2018-10-17T09:35:15.337Z,58.80
2018-10-17T09:37:43.620Z,60.10
2018-10-17T09:40:12.107Z,59.10
2018-10-17T09:42:41.078Z,59.10
2018-10-17T09:45:10.301Z,58.70
2018-10-17T09:47:38.845Z,58.40
2018-10-17T09:50:08.165Z,58.10
2018-10-17T09:52:36.523Z,57.90
2018-10-17T09:55:05.228Z,58.20
2018-10-17T09:57:33.611Z,57.80
2018-10-17T10:00:02.011Z,57.80
2018-10-17T10:02:30.440Z,57.40
2018-10-17T10:04:58.696Z,57.60
2018-10-17T10:07:27.102Z,57.40
2018-10-17T10:09:55.525Z,57.10
2018-10-17T10:12:23.918Z,57.00
2018-10-17T10:14:52.362Z,56.90
2018-10-17T10:17:20.846Z,56.80
2018-10-17T10:19:49.270Z,56.90
2018-10-17T10:22:17.823Z,56.50
2018-10-17T10:24:46.454Z,56.40
2018-10-17T10:27:14.832Z,56.30
2018-10-17T10:29:43.250Z,56.30
2018-10-17T10:32:11.587Z,56.20
2018-10-17T10:34:39.949Z,56.00
2018-10-17T10:37:08.296Z,55.80
2018-10-17T10:39:36.721Z,55.50
2018-10-17T10:42:05.712Z,55.70
2018-10-17T10:44:34.021Z,55.80
2018-10-17T10:47:02.378Z,55.30
2018-10-17T10:49:30.752Z,55.30
2018-10-17T10:51:59.089Z,55.30
2018-10-17T10:54:27.424Z,55.50
2018-10-17T10:56:55.815Z,55.50
2018-10-17T10:59:24.387Z,55.50
2018-10-17T11:01:52.614Z,55.40
2018-10-17T11:04:20.928Z,55.20
2018-10-17T11:06:49.281Z,55.30
2018-10-17T11:09:17.626Z,55.30
2018-10-17T11:11:45.986Z,55.30
2018-10-17T11:14:14.534Z,55.30
2018-10-17T11:16:42.741Z,55.30
2018-10-17T11:19:11.117Z,55.30
2018-10-17T11:21:39.547Z,55.20
2018-10-17T11:24:11.750Z,55.20
2018-10-17T11:26:40.255Z,55.20
2018-10-17T11:29:08.667Z,55.20
2018-10-17T11:31:37.130Z,55.30
2018-10-17T11:34:05.579Z,55.30
2018-10-17T11:36:33.972Z,55.30
2018-10-17T11:39:02.597Z,55.20
2018-10-17T11:41:31.081Z,55.20
2018-10-17T11:43:59.443Z,55.30
2018-10-17T11:46:27.870Z,55.20
2018-10-17T11:48:56.285Z,55.20
2018-10-17T11:51:24.692Z,55.20
2018-10-17T11:53:53.120Z,54.70
2018-10-17T11:56:21.577Z,55.00
2018-10-17T11:58:49.999Z,54.60
2018-10-17T12:01:18.435Z,54.60
2018-10-17T12:03:47.053Z,54.70
2018-10-17T12:06:15.362Z,54.70
2018-10-17T12:08:43.783Z,54.70
2018-10-17T12:11:12.292Z,54.70
2018-10-17T12:13:40.722Z,54.80
2018-10-17T12:16:09.119Z,54.80
2018-10-17T12:18:38.425Z,54.80
2018-10-17T12:21:06.955Z,54.80
2018-10-17T12:23:35.337Z,54.90
2018-10-17T12:26:03.873Z,54.90
2018-10-17T12:28:32.406Z,54.90
2018-10-17T12:31:00.911Z,54.90
2018-10-17T12:33:29.385Z,55.50
2018-10-17T12:35:58.196Z,54.90
2018-10-17T12:38:26.553Z,54.80
2018-10-17T12:40:55.093Z,54.80
2018-10-17T12:43:23.405Z,54.80
2018-10-17T12:45:51.826Z,54.80
2018-10-17T12:48:20.191Z,54.80
2018-10-17T12:50:48.569Z,54.70
2018-10-17T12:53:17.020Z,54.70
2018-10-17T12:55:45.467Z,54.70
2018-10-17T12:58:13.906Z,54.70
2018-10-17T13:00:42.339Z,54.70
2018-10-17T13:03:10.784Z,54.70
2018-10-17T13:05:39.181Z,54.70
2018-10-17T13:08:07.626Z,54.70
2018-10-17T13:10:36.039Z,54.70
2018-10-17T13:13:04.518Z,54.70
2018-10-17T13:15:32.923Z,54.70
2018-10-17T13:18:01.299Z,54.70
2018-10-17T13:20:29.644Z,54.70
2018-10-17T13:22:57.979Z,54.70
2018-10-17T13:25:26.308Z,54.70
2018-10-17T13:27:54.866Z,54.80
2018-10-17T13:30:23.284Z,54.70
2018-10-17T13:32:51.749Z,55.40
2018-10-17T13:35:20.206Z,54.80
2018-10-17T13:37:48.619Z,54.80
2018-10-17T13:40:17.159Z,54.80
2018-10-17T13:42:45.580Z,54.80
2018-10-17T13:45:14.007Z,54.80
2018-10-17T13:47:42.425Z,54.80
2018-10-17T13:50:10.841Z,54.90
2018-10-17T13:52:39.227Z,54.30
2018-10-17T13:55:08.027Z,54.00
2018-10-17T13:57:36.508Z,53.90
2018-10-17T14:00:06.022Z,54.30
2018-10-17T14:02:34.485Z,54.30
2018-10-17T14:05:02.894Z,54.30
2018-10-17T14:07:31.288Z,54.40
2018-10-17T14:09:59.657Z,54.50
2018-10-17T14:12:27.973Z,54.50
2018-10-17T14:14:56.368Z,54.50
2018-10-17T14:17:24.757Z,54.60
2018-10-17T14:19:53.148Z,54.60
2018-10-17T14:22:21.476Z,54.60
2018-10-17T14:24:49.810Z,54.70
2018-10-17T14:27:19.181Z,54.70
2018-10-17T14:29:54.171Z,54.40
2018-10-17T14:32:22.813Z,54.90
2018-10-17T14:34:51.138Z,54.90
2018-10-17T14:37:19.809Z,54.90
2018-10-17T14:39:48.136Z,55.00
2018-10-17T14:42:16.707Z,55.00
2018-10-17T14:44:45.033Z,55.00
2018-10-17T14:47:13.369Z,55.00
2018-10-17T14:49:41.723Z,55.00
2018-10-17T14:52:10.077Z,55.00
2018-10-17T14:54:38.437Z,55.00
2018-10-17T14:57:06.827Z,55.00
2018-10-17T14:59:35.162Z,55.00
2018-10-17T15:02:03.504Z,55.00
2018-10-17T15:04:31.894Z,55.00
2018-10-17T15:07:00.237Z,55.10
2018-10-17T15:09:29.130Z,55.10
2018-10-17T15:11:57.600Z,55.00
2018-10-17T15:14:25.871Z,55.00
2018-10-17T15:16:54.276Z,55.00
2018-10-17T15:19:22.616Z,55.00
2018-10-17T15:21:50.959Z,55.00
2018-10-17T15:24:19.357Z,55.00
2018-10-17T15:26:47.775Z,55.00
2018-10-17T15:29:16.162Z,55.00
2018-10-17T15:31:47.742Z,55.00
2018-10-17T15:34:16.184Z,55.00
2018-10-17T15:36:44.625Z,55.00
2018-10-17T15:39:13.153Z,55.10
2018-10-17T15:41:41.448Z,55.10
2018-10-17T15:44:10.092Z,55.10
2018-10-17T15:46:38.429Z,55.20
2018-10-17T15:49:07.057Z,55.20
2018-10-17T15:51:35.404Z,55.10
2018-10-17T15:54:05.019Z,55.10
2018-10-17T15:56:33.420Z,55.20
2018-10-17T15:59:01.830Z,55.20
2018-10-17T16:01:30.181Z,55.20
2018-10-17T16:03:58.547Z,55.30
2018-10-17T16:06:26.927Z,55.30
2018-10-17T16:08:55.291Z,55.70
2018-10-17T16:11:23.761Z,55.20
2018-10-17T16:13:52.233Z,55.10
2018-10-17T16:16:20.615Z,55.00
2018-10-17T16:18:49.007Z,54.40
2018-10-17T16:21:17.437Z,54.50
2018-10-17T16:23:45.919Z,54.60
2018-10-17T16:26:14.376Z,54.60
2018-10-17T16:28:42.795Z,54.60
2018-10-17T16:31:11.478Z,54.70
2018-10-17T16:33:42.009Z,54.70
2018-10-17T16:36:10.506Z,54.90
2018-10-17T16:38:38.868Z,55.10
2018-10-17T16:41:07.563Z,54.70
2018-10-17T16:43:35.935Z,55.70
2018-10-17T16:46:04.373Z,56.60
2018-10-17T16:48:32.788Z,55.90
2018-10-17T16:51:01.432Z,56.10
2018-10-17T16:53:29.843Z,56.80
2018-10-17T16:55:58.268Z,57.30
2018-10-17T16:58:26.695Z,57.40
2018-10-17T17:00:55.107Z,57.40
2018-10-17T17:03:23.515Z,57.30
2018-10-17T17:05:52.155Z,57.30
2018-10-17T17:08:24.484Z,57.30
2018-10-17T17:10:52.992Z,57.70
2018-10-17T17:13:21.397Z,56.90
2018-10-17T17:15:49.791Z,57.40
2018-10-17T17:18:18.399Z,57.10
2018-10-17T17:20:47.145Z,56.70
2018-10-17T17:23:15.616Z,56.60
2018-10-17T17:25:44.478Z,56.60
2018-10-17T17:28:12.875Z,56.40
2018-10-17T17:30:41.319Z,56.20
2018-10-17T17:33:09.859Z,55.10
2018-10-17T17:35:44.287Z,55.30
2018-10-17T17:38:12.701Z,55.30
2018-10-17T17:40:41.161Z,55.50
2018-10-17T17:43:09.564Z,55.60
2018-10-17T17:45:37.984Z,55.60
2018-10-17T17:48:06.499Z,55.40
2018-10-17T17:50:34.903Z,55.10
2018-10-17T17:53:03.383Z,55.50
2018-10-17T17:55:31.807Z,55.20
2018-10-17T17:58:00.305Z,55.20
2018-10-17T18:00:28.673Z,55.20
2018-10-17T18:02:57.103Z,55.30
2018-10-17T18:05:25.591Z,55.40
2018-10-17T18:07:54.087Z,55.20
2018-10-17T18:10:22.565Z,55.30
2018-10-17T18:12:51.307Z,54.60
2018-10-17T18:15:19.733Z,53.40
2018-10-17T18:17:48.156Z,52.70
2018-10-17T18:20:16.538Z,52.60
2018-10-17T18:22:44.970Z,52.90
2018-10-17T18:25:13.391Z,53.00
2018-10-17T18:27:43.463Z,53.20
2018-10-17T18:30:11.868Z,53.30
2018-10-17T18:32:40.525Z,53.40
2018-10-17T18:35:09.189Z,53.40
2018-10-17T18:37:38.816Z,53.40
2018-10-17T18:40:07.703Z,53.40
2018-10-17T18:42:36.073Z,53.40
2018-10-17T18:45:04.689Z,53.40
2018-10-17T18:47:33.096Z,53.50
2018-10-17T18:50:01.493Z,53.50
2018-10-17T18:52:29.943Z,53.50
2018-10-17T18:54:59.386Z,53.60
2018-10-17T18:57:27.798Z,53.50
2018-10-17T18:59:56.230Z,53.60
2018-10-17T19:02:24.684Z,53.50
2018-10-17T19:04:53.109Z,53.50
2018-10-17T19:07:21.533Z,53.60
2018-10-17T19:09:49.934Z,53.60
2018-10-17T19:12:18.344Z,53.60
2018-10-17T19:14:46.775Z,53.50
2018-10-17T19:17:15.273Z,53.50
2018-10-17T19:19:43.684Z,53.50
2018-10-17T19:22:12.129Z,53.50
2018-10-17T19:24:40.659Z,53.50
2018-10-17T19:27:09.064Z,53.50
2018-10-17T19:29:37.470Z,53.40
2018-10-17T19:32:06.119Z,53.40
2018-10-17T19:34:34.530Z,53.40
2018-10-17T19:37:02.953Z,53.40
2018-10-17T19:39:34.597Z,53.30
2018-10-17T19:42:03.143Z,53.30
2018-10-17T19:44:31.518Z,53.30
2018-10-17T19:46:59.990Z,53.40
2018-10-17T19:49:28.420Z,53.30
2018-10-17T19:51:56.868Z,53.30
2018-10-17T19:54:25.285Z,53.40
2018-10-17T19:56:53.756Z,53.40
2018-10-17T19:59:22.203Z,53.30
2018-10-17T20:01:51.164Z,53.50
2018-10-17T20:04:19.594Z,53.30
2018-10-17T20:06:48.020Z,53.20
2018-10-17T20:09:16.470Z,53.10
2018-10-17T20:11:44.849Z,53.20
2018-10-17T20:14:13.380Z,53.10
2018-10-17T20:16:42.939Z,53.10
2018-10-17T20:19:12.048Z,53.10
2018-10-17T20:21:40.496Z,53.10
2018-10-17T20:24:08.927Z,53.10
2018-10-17T20:26:37.351Z,53.10
2018-10-17T20:29:06.136Z,53.20
2018-10-17T20:31:34.558Z,53.10
2018-10-17T20:34:03.069Z,53.20
2018-10-17T20:36:34.919Z,53.10
2018-10-17T20:39:03.411Z,53.10
2018-10-17T20:41:35.321Z,53.10
2018-10-17T20:44:03.807Z,53.10
2018-10-17T20:46:32.384Z,53.10
2018-10-17T20:49:00.772Z,53.10
2018-10-17T20:51:29.195Z,53.10
2018-10-17T20:53:57.594Z,53.10
2018-10-17T20:56:26.078Z,53.10
2018-10-17T20:58:54.572Z,53.00
2018-10-17T21:01:22.992Z,53.10
2018-10-17T21:03:51.510Z,53.00
2018-10-17T21:06:19.900Z,53.20
2018-10-17T21:08:48.285Z,53.20
2018-10-17T21:11:16.703Z,53.10
2018-10-17T21:13:45.106Z,53.20
2018-10-17T21:16:13.482Z,53.00
2018-10-17T21:18:41.953Z,53.00
2018-10-17T21:21:10.379Z,53.00
2018-10-17T21:23:38.759Z,53.00
2018-10-17T21:26:07.180Z,53.00
2018-10-17T21:28:35.615Z,53.00
2018-10-17T21:31:04.010Z,53.00
2018-10-17T21:33:32.408Z,53.00
2018-10-17T21:36:00.831Z,53.00
2018-10-17T21:38:29.247Z,53.00
2018-10-17T21:40:57.866Z,53.00
2018-10-17T21:43:26.465Z,53.00
2018-10-17T21:45:54.940Z,53.00
2018-10-17T21:48:23.351Z,52.90
2018-10-17T21:50:51.811Z,52.90
2018-10-17T21:53:20.261Z,52.90
2018-10-17T21:55:48.657Z,52.90
2018-10-17T21:58:17.078Z,52.90
2018-10-17T22:00:45.507Z,52.90
2018-10-17T22:03:13.903Z,52.90
2018-10-17T22:05:42.332Z,52.90
2018-10-17T22:08:10.805Z,52.90
2018-10-17T22:10:39.268Z,52.90
2018-10-17T22:13:07.719Z,52.90
2018-10-17T22:15:36.153Z,52.80
2018-10-17T22:18:04.547Z,52.80
2018-10-17T22:20:33.008Z,52.80
2018-10-17T22:23:01.451Z,52.80
2018-10-17T22:25:29.895Z,52.80
2018-10-17T22:27:58.321Z,52.80
2018-10-17T22:30:26.947Z,52.80
2018-10-17T22:32:55.359Z,52.80
2018-10-17T22:35:23.801Z,52.80
2018-10-17T22:37:52.225Z,52.80
2018-10-17T22:40:20.676Z,53.40
2018-10-17T22:42:49.100Z,52.80
2018-10-17T22:45:18.751Z,52.70
2018-10-17T22:47:47.156Z,52.80
2018-10-17T22:50:15.675Z,52.70
2018-10-17T22:52:44.052Z,52.80
2018-10-17T22:55:12.503Z,52.70
2018-10-17T22:57:40.923Z,52.80
2018-10-17T23:00:09.870Z,52.70
2018-10-17T23:02:38.335Z,52.70
2018-10-17T23:05:06.725Z,52.80
2018-10-17T23:07:35.159Z,52.70
2018-10-17T23:10:03.563Z,52.80
2018-10-17T23:12:32.002Z,52.70
2018-10-17T23:15:00.445Z,52.70
2018-10-17T23:17:28.852Z,52.70
2018-10-17T23:19:57.310Z,52.70
2018-10-17T23:22:25.707Z,52.70
2018-10-17T23:24:54.144Z,52.70
2018-10-17T23:27:22.560Z,52.70
2018-10-17T23:29:50.956Z,52.70
2018-10-17T23:32:19.392Z,52.70
2018-10-17T23:34:47.820Z,53.30
2018-10-17T23:37:16.220Z,52.70
2018-10-17T23:39:44.619Z,52.70
2018-10-17T23:42:13.056Z,52.60
2018-10-17T23:44:41.504Z,52.60
2018-10-17T23:47:10.996Z,52.60
2018-10-17T23:49:39.412Z,52.50
2018-10-17T23:52:07.831Z,52.50
2018-10-17T23:54:36.252Z,52.60
2018-10-17T23:57:04.679Z,53.20
2018-10-17T23:59:33.079Z,52.60
